Time;durP1;ratioP1;P1;durP2;ratioP2;P2;SDS_P1;SDS_P2;PMS_P1;PMS_P2;Temp;Humidity;BMP_temperature;BMP_pressure;BME280_temperature;BME280_humidity;BME280_pressure;Samples;Min_cycle;Max_cycle;Signal;HPM_P1;HPM_P2
2022/03/22 00:00:37;;;;;;;38.77;22.70;;;3.60;46.70;;;3.43;39.36;96383.59;5073805;28;20456;-57
2022/03/22 00:03:05;;;;;;;42.53;25.50;;;3.60;46.70;;;3.46;40.21;96386.06;5075146;28;20478;-56
2022/03/22 00:05:34;;;;;;;46.87;26.10;;;3.60;46.50;;;3.48;39.27;96381.63;5071264;28;20538;-56
2022/03/22 00:08:03;;;;;;;38.90;21.70;;;3.70;46.50;;;3.52;40.23;96383.22;5069232;28;20705;-55
2022/03/22 00:10:30;;;;;;;32.87;19.57;;;3.70;47.00;;;3.56;39.62;96387.41;5067802;28;20465;-57
2022/03/22 00:12:57;;;;;;;27.37;17.27;;;3.70;47.30;;;3.56;40.46;96382.22;5070277;28;20560;-55
2022/03/22 00:15:25;;;;;;;36.17;19.40;;;3.80;47.40;;;3.58;40.07;96369.97;5074532;28;20478;-57
2022/03/22 00:17:52;;;;;;;34.70;20.13;;;3.80;47.30;;;3.60;40.31;96369.94;5073691;28;20470;-59
2022/03/22 00:20:20;;;;;;;42.90;20.47;;;3.80;47.20;;;3.61;40.33;96379.44;5069767;28;20536;-57
2022/03/22 00:22:49;;;;;;;27.43;17.17;;;3.80;47.40;;;3.63;39.88;96371.56;5074957;28;20486;-56
2022/03/22 00:25:17;;;;;;;23.80;15.67;;;3.80;47.10;;;3.64;39.41;96370.63;5066005;28;20451;-56
2022/03/22 00:27:53;;;;;;;33.30;16.70;;;3.80;46.80;;;3.67;39.75;96362.72;5067063;28;20570;-55
2022/03/22 00:30:22;;;;;;;53.73;27.43;;;3.80;46.80;;;3.73;40.13;96362.47;5075934;28;20453;-55
2022/03/22 00:32:52;;;;;;;51.63;22.70;;;3.90;46.80;;;3.76;39.42;96352.81;5068167;28;20499;-56
2022/03/22 00:35:19;;;;;;;43.67;23.83;;;3.90;46.60;;;3.80;39.60;96363.09;5073064;28;20465;-57
2022/03/22 00:37:50;;;;;;;28.87;18.37;;;4.00;46.60;;;3.85;38.82;96361.16;5074080;28;20816;-56
2022/03/22 00:40:18;;;;;;;31.27;19.17;;;4.00;46.20;;;3.88;38.80;96361.84;5062291;28;20764;-56
2022/03/22 00:42:46;;;;;;;41.60;21.63;;;4.00;46.00;;;3.90;39.63;96351.38;5073524;28;20486;-56
2022/03/22 00:45:16;;;;;;;31.17;17.00;;;4.10;46.00;;;3.93;39.25;96359.94;5076567;28;20450;-55
2022/03/22 00:47:45;;;;;;;35.30;18.60;;;4.10;46.00;;;3.94;39.00;96361.59;5054378;28;20619;-54
2022/03/22 00:50:13;;;;;;;26.80;16.07;;;4.10;45.80;;;3.99;39.22;96357.97;5077057;28;21005;-55
2022/03/22 00:52:40;;;;;;;27.30;16.30;;;4.10;45.70;;;4.01;38.50;96356.16;5072683;28;21000;-56
2022/03/22 00:55:11;;;;;;;25.33;15.10;;;4.10;45.50;;;4.04;38.92;96361.22;5070395;28;20888;-55
2022/03/22 00:57:39;;;;;;;30.10;19.30;;;4.20;45.50;;;4.06;38.57;96356.81;5071195;28;20484;-54
2022/03/22 01:00:10;;;;;;;28.10;18.23;;;4.20;45.70;;;4.05;39.21;96355.13;5068870;28;20835;-55
2022/03/22 01:02:39;;;;;;;34.33;17.27;;;4.20;45.60;;;4.04;38.86;96358.63;5069434;28;20478;-57
2022/03/22 01:05:11;;;;;;;32.13;17.20;;;4.20;46.10;;;4.03;39.14;96360.41;5074380;28;20463;-57
2022/03/22 01:07:38;;;;;;;31.93;18.47;;;4.20;46.10;;;4.01;39.57;96358.75;5073442;28;20490;-56
2022/03/22 01:10:09;;;;;;;30.53;15.47;;;4.20;46.30;;;3.98;38.75;96344.09;5067638;28;20459;-57
2022/03/22 01:12:36;;;;;;;28.77;17.90;;;4.10;46.00;;;3.97;38.85;96347.63;5076690;28;20493;-56
2022/03/22 01:15:04;;;;;;;29.30;18.10;;;4.10;46.20;;;3.99;39.34;96345.81;5072907;28;20516;-55
2022/03/22 01:17:33;;;;;;;29.40;18.00;;;4.10;46.30;;;4.01;39.28;96340.53;5071779;28;20540;-56
2022/03/22 01:20:02;;;;;;;26.70;15.10;;;4.10;46.40;;;4.02;39.71;96345.69;5075129;28;20462;-56
2022/03/22 01:22:29;;;;;;;20.97;11.60;;;4.20;46.50;;;4.01;39.61;96351.78;5074929;28;20470;-56
2022/03/22 01:24:57;;;;;;;18.13;11.13;;;4.20;46.10;;;3.96;38.81;96343.31;5073563;28;20449;-57
2022/03/22 01:27:26;;;;;;;23.10;11.80;;;4.20;46.00;;;3.92;39.35;96337.41;5081867;28;20462;-57
2022/03/22 01:29:53;;;;;;;20.37;11.43;;;4.10;46.00;;;3.88;39.64;96335.81;5069575;28;20543;-56
2022/03/22 01:32:21;;;;;;;17.97;10.97;;;4.10;46.30;;;3.90;39.14;96328.81;5070824;28;20494;-56
2022/03/22 01:34:48;;;;;;;18.23;10.80;;;4.00;46.30;;;3.90;39.56;96339.25;5067423;28;20980;-56
2022/03/22 01:37:15;;;;;;;24.77;10.70;;;4.10;46.20;;;3.90;38.96;96326.22;5068404;28;20486;-56
2022/03/22 01:39:43;;;;;;;18.00;11.07;;;4.10;46.20;;;3.91;39.14;96330.50;5067999;28;20485;-55
2022/03/22 01:42:11;;;;;;;16.87;10.03;;;4.10;46.10;;;3.93;39.02;96333.03;5067648;28;20475;-56
2022/03/22 01:44:39;;;;;;;15.33;10.47;;;4.10;46.10;;;3.94;39.49;96330.38;5063081;28;20553;-57
2022/03/22 01:47:07;;;;;;;24.40;12.47;;;4.10;46.10;;;3.97;38.78;96328.53;5074175;28;20474;-56
2022/03/22 01:49:34;;;;;;;163.77;48.93;;;4.10;46.00;;;3.98;39.11;96320.66;5077014;28;20619;-57
2022/03/22 01:52:02;;;;;;;64.93;24.10;;;4.10;45.60;;;4.00;39.02;96318.00;5068713;28;20980;-55
2022/03/22 01:54:29;;;;;;;20.53;11.50;;;4.10;45.60;;;4.04;38.99;96316.97;5070805;28;20481;-56
2022/03/22 01:56:56;;;;;;;18.07;10.90;;;4.20;45.60;;;4.08;39.00;96323.75;5069159;28;20475;-56
2022/03/22 01:59:24;;;;;;;20.83;11.20;;;4.20;45.50;;;4.13;38.36;96322.63;5066254;28;20966;-56
2022/03/22 02:07:22;;;;;;;12.40;8.90;;;4.40;45.30;;;4.24;38.06;96324.78;5068563;28;20484;-57
2022/03/22 02:09:49;;;;;;;15.90;8.50;;;4.40;45.30;;;4.26;37.97;96322.97;5073787;28;20511;-56
2022/03/22 02:12:16;;;;;;;18.00;10.10;;;4.40;45.00;;;4.26;38.16;96315.16;5065275;28;20481;-55
2022/03/22 02:14:44;;;;;;;14.20;8.67;;;4.40;45.00;;;4.33;37.93;96315.75;5072673;28;20462;-56
2022/03/22 02:17:12;;;;;;;15.87;8.93;;;4.50;44.90;;;4.38;38.19;96313.78;5074164;28;20486;-56
2022/03/22 02:19:40;;;;;;;12.97;9.07;;;4.50;44.80;;;4.39;37.87;96310.28;5067861;28;20454;-56
2022/03/22 02:22:11;;;;;;;16.60;10.80;;;4.50;45.00;;;4.40;37.78;96305.91;5071071;28;20480;-55
2022/03/22 02:24:39;;;;;;;13.50;9.00;;;4.50;44.80;;;4.40;37.95;96304.16;5072935;28;20453;-56
2022/03/22 02:27:08;;;;;;;17.67;10.27;;;4.50;44.80;;;4.41;37.81;96303.22;5065580;28;20471;-56
2022/03/22 02:29:35;;;;;;;86.83;30.67;;;4.60;44.90;;;4.40;37.53;96303.28;5072230;28;20974;-56
2022/03/22 02:32:03;;;;;;;72.87;27.10;;;4.50;44.40;;;4.39;37.79;96299.00;5066870;28;20486;-57
2022/03/22 02:34:31;;;;;;;28.73;13.70;;;4.50;44.20;;;4.36;37.48;96299.16;5064032;28;20487;-55
2022/03/22 02:36:59;;;;;;;22.17;12.77;;;4.50;44.10;;;4.34;37.85;96306.16;5073947;28;20475;-56
2022/03/22 02:39:26;;;;;;;25.40;11.17;;;4.50;44.20;;;4.34;38.10;96303.56;5077014;28;21071;-56
2022/03/22 02:41:55;;;;;;;22.23;10.80;;;4.50;44.40;;;4.33;38.15;96307.09;5069330;28;20482;-55
2022/03/22 02:44:22;;;;;;;17.83;11.43;;;4.50;44.80;;;4.29;38.17;96309.84;5075247;28;20458;-55
2022/03/22 02:46:50;;;;;;;20.77;11.57;;;4.40;45.40;;;4.24;38.58;96313.53;5074566;28;20468;-56
2022/03/22 02:49:17;;;;;;;21.33;11.90;;;4.40;45.50;;;4.20;37.85;96304.16;5062676;28;20459;-55
2022/03/22 02:51:45;;;;;;;20.33;10.93;;;4.30;45.30;;;4.13;38.75;96311.38;5072388;28;20501;-55
2022/03/22 02:54:12;;;;;;;19.63;11.20;;;4.30;45.80;;;4.06;39.58;96320.34;5072356;28;20494;-55
2022/03/22 02:56:40;;;;;;;31.50;13.93;;;4.20;46.10;;;3.94;39.34;96324.34;5072927;28;20486;-57
2022/03/22 02:59:08;;;;;;;23.20;14.40;;;4.20;46.60;;;3.80;38.91;96317.09;5071350;28;20550;-56
2022/03/22 03:01:36;;;;;;;26.90;15.20;;;4.00;46.40;;;3.69;39.62;96320.13;5074811;28;20471;-56
2022/03/22 03:04:03;;;;;;;24.53;14.07;;;3.90;46.80;;;3.64;40.29;96324.69;5068853;28;20910;-56
2022/03/22 03:06:30;;;;;;;42.63;16.10;;;3.80;46.80;;;3.57;41.02;96326.66;5080137;28;20610;-57
2022/03/22 03:08:58;;;;;;;35.33;19.70;;;3.80;47.80;;;3.41;40.93;96326.41;5062022;28;21001;-56
2022/03/22 03:11:26;;;;;;;37.90;18.90;;;3.70;48.50;;;3.35;41.38;96325.81;5071022;28;20463;-55
2022/03/22 03:16:40;;;;;;;40.90;17.93;;;3.50;48.20;;;3.16;40.95;96318.72;5067879;28;20501;-54
2022/03/22 03:19:08;;;;;;;29.40;17.90;;;3.40;48.40;;;3.08;40.56;96320.75;5072707;28;20462;-56
2022/03/22 03:21:35;;;;;;;41.70;19.90;;;3.30;48.20;;;3.01;41.15;96321.91;5077868;28;20504;-55
2022/03/22 03:24:02;;;;;;;41.57;21.23;;;3.20;48.90;;;2.96;41.80;96321.22;5069695;28;20458;-56
2022/03/22 03:26:30;;;;;;;43.63;21.57;;;3.20;49.10;;;2.92;41.18;96312.69;5071495;28;20474;-56
2022/03/22 03:28:57;;;;;;;41.20;21.17;;;3.10;49.10;;;2.89;42.35;96305.03;5072621;28;20462;-56
2022/03/22 03:31:25;;;;;;;36.37;19.87;;;3.10;49.40;;;2.87;42.34;96309.44;5068510;28;20537;-56
2022/03/22 03:33:54;;;;;;;52.57;20.00;;;3.10;49.40;;;2.86;41.46;96315.53;5073667;28;20506;-56
2022/03/22 03:36:21;;;;;;;29.97;12.93;;;3.10;49.90;;;2.80;41.48;96308.78;5072478;28;20581;-56
2022/03/22 03:38:49;;;;;;;17.37;11.50;;;3.00;49.20;;;2.79;42.34;96306.25;5069829;28;20462;-57
2022/03/22 03:47:03;;;;;;;35.80;18.80;;;3.00;49.90;;;2.74;42.75;96309.03;5070469;28;20625;-55
2022/03/22 03:47:07;;;;;;;41.77;18.70;;;3.00;50.80;;;2.68;41.76;96309.25;5066526;28;20557;-56
2022/03/22 03:49:37;;;;;;;162.97;49.17;;;2.90;49.80;;;2.64;41.97;96312.88;5073451;28;20455;-54
2022/03/22 03:52:06;;;;;;;86.73;32.13;;;2.90;50.00;;;2.61;42.20;96308.63;5068589;28;20756;-55
2022/03/22 03:54:34;;;;;;;69.07;25.60;;;2.80;50.00;;;2.59;42.26;96305.25;5074298;28;20583;-57
2022/03/22 03:57:01;;;;;;;48.17;19.00;;;2.80;50.10;;;2.57;42.70;96316.59;5076340;28;20471;-56
2022/03/22 03:59:28;;;;;;;47.20;21.30;;;2.80;50.10;;;2.56;42.46;96317.50;5068165;28;20485;-57
2022/03/22 04:01:56;;;;;;;34.37;17.17;;;2.80;50.10;;;2.54;42.90;96321.91;5069215;28;20486;-56
2022/03/22 04:04:23;;;;;;;38.00;16.87;;;2.80;51.30;;;2.45;42.67;96325.69;5073533;28;20797;-56
2022/03/22 04:06:52;;;;;;;34.93;17.33;;;2.70;51.20;;;2.30;43.11;96327.91;5067193;28;20834;-57
2022/03/22 04:09:19;;;;;;;29.23;17.40;;;2.60;50.90;;;2.21;43.85;96320.44;5073335;28;21008;-57
2022/03/22 04:11:46;;;;;;;54.43;17.20;;;2.50;51.10;;;2.14;44.29;96317.22;5077731;28;20474;-56
2022/03/22 04:14:14;;;;;;;47.20;18.50;;;2.40;52.00;;;2.08;42.99;96325.19;5070774;28;20497;-56
2022/03/22 04:16:41;;;;;;;32.53;17.13;;;2.30;51.50;;;2.05;44.06;96308.91;5073307;28;20483;-57
2022/03/22 04:19:08;;;;;;;33.17;14.40;;;2.30;51.80;;;2.00;43.44;96322.03;5073254;28;20460;-56
2022/03/22 04:21:36;;;;;;;27.50;14.50;;;2.20;51.50;;;1.96;44.50;96325.63;5066333;28;20489;-55
2022/03/22 04:24:07;;;;;;;26.43;10.30;;;2.20;51.90;;;1.93;43.07;96308.41;5072811;28;20463;-57
2022/03/22 04:26:35;;;;;;;27.33;14.37;;;2.20;50.90;;;1.95;42.60;96322.19;5074407;28;20570;-55
2022/03/22 04:34:32;;;;;;;31.30;15.67;;;2.20;50.70;;;2.06;42.55;96323.53;5067098;28;20473;-56
2022/03/22 04:37:00;;;;;;;23.57;13.87;;;2.30;50.90;;;2.11;42.86;96324.25;5070189;28;21032;-55
2022/03/22 04:39:31;;;;;;;41.70;14.33;;;2.30;51.60;;;2.13;43.24;96325.88;5076802;28;20462;-57
2022/03/22 04:41:59;;;;;;;23.93;12.80;;;2.40;51.00;;;2.17;42.59;96325.78;5067703;28;20552;-55
2022/03/22 04:44:27;;;;;;;31.23;12.97;;;2.40;51.30;;;2.17;43.29;96324.06;5073417;28;20474;-56
2022/03/22 04:46:55;;;;;;;23.03;12.23;;;2.40;50.90;;;2.18;42.15;96320.53;5077390;28;20465;-55
2022/03/22 04:49:22;;;;;;;20.27;11.50;;;2.40;50.40;;;2.21;43.21;96329.97;5070971;28;20451;-57
2022/03/22 04:57:20;;;;;;;27.63;13.20;;;2.50;50.90;;;2.31;42.28;96314.03;5070467;28;20457;-57
2022/03/22 04:59:48;;;;;;;29.40;11.60;;;2.50;51.10;;;2.36;43.90;96315.63;5076484;28;20450;-55
2022/03/22 05:02:16;;;;;;;21.70;10.63;;;2.60;51.70;;;2.43;43.44;96320.56;5071009;28;20562;-57
2022/03/22 05:04:43;;;;;;;25.40;11.37;;;2.60;50.50;;;2.55;42.68;96323.59;5067312;28;20458;-56
2022/03/22 05:07:10;;;;;;;24.37;9.70;;;2.70;50.50;;;2.65;41.77;96327.53;5068667;28;20498;-56
2022/03/22 05:09:39;;;;;;;19.57;10.30;;;2.80;49.70;;;2.77;41.22;96313.28;5072682;28;20455;-57
2022/03/22 05:12:13;;;;;;;19.60;10.60;;;2.90;49.30;;;2.89;41.64;96317.19;5073050;28;20479;-56
2022/03/22 05:14:42;;;;;;;21.60;9.97;;;3.00;48.90;;;3.08;41.10;96317.31;5077707;28;20486;-56
2022/03/22 05:17:11;;;;;;;19.10;9.80;;;3.20;48.90;;;3.36;40.50;96309.28;5066022;28;20502;-56
2022/03/22 05:19:40;;;;;;;15.23;8.73;;;3.50;48.30;;;3.66;40.09;96309.84;5067035;28;20551;-57
2022/03/22 05:22:08;;;;;;;18.77;11.17;;;3.80;47.90;;;3.88;39.89;96314.16;5069241;28;20976;-57
2022/03/22 05:24:35;;;;;;;17.87;9.40;;;4.00;47.50;;;4.02;39.25;96314.44;5069493;28;20518;-57
2022/03/22 05:27:06;;;;;;;16.20;9.47;;;4.10;47.00;;;4.14;39.32;96318.28;5070453;28;20486;-56
2022/03/22 05:29:33;;;;;;;14.57;9.10;;;4.30;46.70;;;4.25;39.29;96317.84;5066291;28;20815;-56
2022/03/22 05:32:01;;;;;;;16.23;9.90;;;4.40;46.50;;;4.41;38.37;96299.78;5063196;28;20479;-57
2022/03/22 05:34:28;;;;;;;19.63;10.67;;;4.50;45.80;;;4.67;38.55;96315.09;5072170;28;20624;-57
2022/03/22 05:36:55;;;;;;;22.37;10.07;;;4.80;45.90;;;5.00;37.85;96313.66;5073366;28;20471;-55
2022/03/22 05:39:23;;;;;;;19.13;9.57;;;5.10;45.30;;;5.23;37.47;96311.78;5066380;28;20467;-57
2022/03/22 05:41:51;;;;;;;18.83;10.20;;;5.30;44.80;;;5.32;37.08;96299.13;5071218;28;20484;-56
2022/03/22 05:44:21;;;;;;;21.33;12.83;;;5.40;44.10;;;5.37;36.61;96294.53;5068634;28;20552;-56
2022/03/22 05:46:49;;;;;;;26.10;11.20;;;5.50;43.80;;;5.39;36.66;96313.59;5069652;28;20477;-55
2022/03/22 05:49:16;;;;;;;17.30;10.67;;;5.50;43.80;;;5.43;36.73;96297.78;5073577;28;20512;-57
2022/03/22 05:51:43;;;;;;;16.70;10.30;;;5.50;43.80;;;5.43;36.71;96298.63;5063597;28;21158;-57
2022/03/22 05:54:10;;;;;;;17.07;10.43;;;5.50;43.80;;;5.52;36.99;96300.78;5063780;28;21180;-56
2022/03/22 05:56:38;;;;;;;21.63;9.63;;;5.60;43.80;;;5.62;36.64;96298.59;5063466;28;20682;-56
2022/03/22 05:59:05;;;;;;;17.30;10.23;;;5.70;43.70;;;5.78;36.30;96297.84;5063529;28;20833;-57
2022/03/22 06:01:34;;;;;;;24.63;10.60;;;5.80;43.30;;;5.94;36.23;96309.22;5069526;28;20563;-56
2022/03/22 06:04:01;;;;;;;14.53;9.13;;;5.90;43.20;;;6.17;36.04;96294.22;5071692;28;20493;-57
2022/03/22 06:06:28;;;;;;;21.00;9.30;;;6.10;42.90;;;6.42;35.88;96297.25;5075768;28;20451;-58
2022/03/22 06:08:56;;;;;;;22.10;10.43;;;6.40;43.10;;;6.71;35.50;96292.28;5072675;28;20825;-57
2022/03/22 06:11:23;;;;;;;18.30;8.37;;;6.60;42.80;;;7.00;35.32;96300.34;5076686;28;20458;-57
2022/03/22 06:13:50;;;;;;;16.90;8.30;;;6.90;42.40;;;7.29;34.99;96292.69;5070879;28;20494;-57
2022/03/22 06:16:18;;;;;;;13.77;9.50;;;7.20;42.10;;;7.53;33.97;96293.94;5073260;28;20827;-59
2022/03/22 06:18:46;;;;;;;15.57;10.17;;;7.40;41.40;;;7.78;34.92;96292.56;5076518;28;20473;-58
2022/03/22 06:21:14;;;;;;;14.80;9.63;;;7.60;41.50;;;8.07;33.90;96297.88;5069360;28;20454;-55
2022/03/22 06:23:41;;;;;;;18.60;10.50;;;7.90;41.60;;;8.34;33.61;96297.22;5072627;28;20478;-58
2022/03/22 06:26:09;;;;;;;22.93;8.63;;;8.10;41.40;;;8.57;34.07;96296.72;5078862;28;20878;-56
2022/03/22 06:28:36;;;;;;;13.50;9.10;;;8.40;40.70;;;8.81;33.37;96292.69;5067520;28;20459;-57
2022/03/22 06:31:03;;;;;;;11.43;9.20;;;8.60;40.70;;;9.08;33.54;96295.41;5074073;28;20524;-57
2022/03/22 06:33:30;;;;;;;18.23;8.50;;;8.90;40.40;;;9.30;32.41;96285.22;5075975;28;20485;-56
2022/03/22 06:35:59;;;;;;;17.23;9.07;;;9.10;39.70;;;9.57;32.58;96289.66;5062538;28;20812;-57
2022/03/22 06:38:26;;;;;;;20.13;8.93;;;9.40;39.60;;;9.87;31.95;96291.28;5075068;28;20478;-57
2022/03/22 06:40:54;;;;;;;22.23;9.80;;;9.60;39.30;;;10.21;32.00;96283.78;5076335;28;20906;-57
2022/03/22 06:43:21;;;;;;;14.70;9.20;;;9.90;38.60;;;10.53;31.82;96288.69;5066887;28;20482;-57
2022/03/22 06:45:49;;;;;;;17.57;8.67;;;10.20;37.80;;;10.75;31.19;96280.16;5074880;28;20454;-57
2022/03/22 06:48:16;;;;;;;18.50;9.00;;;10.50;37.20;;;10.92;31.01;96286.88;5071159;28;20474;-57
2022/03/22 06:50:44;;;;;;;13.03;10.50;;;10.70;37.10;;;10.98;30.36;96281.19;5067927;28;20451;-56
2022/03/22 06:53:14;;;;;;;15.40;9.63;;;10.80;36.00;;;10.94;30.62;96283.19;5063797;28;20475;-57
2022/03/22 06:55:41;;;;;;;14.17;9.43;;;10.80;36.00;;;11.00;30.80;96281.94;5072849;28;20490;-57
2022/03/22 06:58:08;;;;;;;14.40;9.37;;;10.80;36.10;;;11.09;30.66;96276.03;5070002;28;20564;-57
2022/03/22 07:00:36;;;;;;;20.23;9.97;;;10.90;36.10;;;11.15;30.76;96281.78;5077916;28;20457;-58
2022/03/22 07:03:04;;;;;;;17.27;9.43;;;11.00;36.20;;;11.17;30.20;96278.13;5073386;28;20486;-57
2022/03/22 07:05:32;;;;;;;14.83;9.30;;;11.00;35.90;;;11.19;30.24;96281.47;5068741;28;20458;-57
2022/03/22 07:07:59;;;;;;;19.80;10.97;;;11.10;35.50;;;11.28;30.43;96272.91;5077933;28;20474;-54
2022/03/22 07:10:28;;;;;;;17.57;9.80;;;11.20;35.80;;;11.34;30.41;96271.66;5073015;28;20455;-57
2022/03/22 07:12:56;;;;;;;24.00;9.27;;;11.20;36.00;;;11.48;30.30;96268.84;5070531;28;20473;-58
2022/03/22 07:15:28;;;;;;;22.30;9.90;;;11.30;36.00;;;11.81;30.17;96274.41;5075718;28;20489;-58
2022/03/22 07:17:57;;;;;;;12.60;9.13;;;11.60;36.30;;;12.37;30.20;96274.63;5068002;28;20724;-60
2022/03/22 07:20:25;;;;;;;14.37;9.07;;;12.10;36.40;;;13.00;30.01;96270.78;5072520;28;20548;-57
2022/03/22 07:22:52;;;;;;;21.60;9.90;;;12.60;36.90;;;13.52;29.48;96269.28;5075683;28;20482;-57
2022/03/22 07:25:19;;;;;;;16.17;10.63;;;13.10;36.20;;;13.83;28.49;96266.81;5068832;28;20457;-57
2022/03/22 07:27:48;;;;;;;12.60;8.50;;;13.40;34.10;;;13.95;27.01;96260.50;5071776;28;20820;-57
2022/03/22 07:30:16;;;;;;;11.50;8.70;;;13.70;32.70;;;13.94;26.96;96258.84;5079299;28;20458;-57
2022/03/22 07:32:43;;;;;;;12.57;8.90;;;13.80;32.20;;;13.85;27.52;96262.25;5068395;28;20470;-54
2022/03/22 07:35:11;;;;;;;19.03;10.70;;;13.70;32.30;;;13.75;27.74;96254.22;5075036;28;20494;-57
2022/03/22 07:37:39;;;;;;;13.73;9.77;;;13.70;32.70;;;13.66;27.65;96254.97;5078807;28;20523;-56
2022/03/22 07:40:09;;;;;;;19.60;9.90;;;13.60;32.60;;;13.51;27.84;96249.13;5062781;28;20463;-57
2022/03/22 07:42:37;;;;;;;48.53;18.20;;;13.40;32.50;;;13.40;27.22;96249.13;5078124;28;20998;-58
2022/03/22 07:45:07;;;;;;;20.03;12.73;;;13.30;32.10;;;13.26;27.72;96245.78;5083734;28;20651;-55
2022/03/22 07:47:35;;;;;;;14.40;10.23;;;13.20;32.90;;;13.16;27.81;96249.28;5072601;28;20481;-57
2022/03/22 07:53:01;;;;;;;13.33;9.83;;;13.00;32.90;;;12.89;28.10;96246.03;5071992;28;21641;-57
2022/03/22 07:55:29;;;;;;;14.43;9.87;;;12.80;33.20;;;12.73;28.12;96248.19;5072577;28;20482;-58
2022/03/22 07:57:57;;;;;;;20.03;9.83;;;12.70;32.80;;;12.58;28.65;96242.31;5078903;28;20477;-57
2022/03/22 08:00:26;;;;;;;20.80;11.03;;;12.60;33.50;;;12.45;28.47;96239.75;5064478;28;20442;-56
2022/03/22 08:02:57;;;;;;;17.50;10.13;;;12.40;33.20;;;12.31;28.54;96250.53;5073844;28;21126;-57
2022/03/22 08:05:25;;;;;;;19.40;11.87;;;12.20;33.60;;;12.13;28.81;96250.09;5078854;28;20453;-57
2022/03/22 08:07:53;;;;;;;18.77;11.67;;;12.10;33.80;;;11.96;28.70;96246.09;5072993;28;20783;-57
2022/03/22 08:10:21;;;;;;;24.90;14.17;;;11.90;34.00;;;11.77;28.87;96242.19;5074558;28;21080;-57
2022/03/22 08:12:48;;;;;;;17.20;10.90;;;11.70;34.60;;;11.59;29.05;96239.09;5073187;28;20467;-57
2022/03/22 08:15:16;;;;;;;19.10;9.07;;;11.50;34.10;;;11.48;29.56;96245.13;5066863;28;20494;-57
2022/03/22 08:17:44;;;;;;;22.77;13.87;;;11.40;34.60;;;11.39;29.53;96243.16;5073056;28;20565;-57
2022/03/22 08:20:13;;;;;;;18.80;11.10;;;11.30;34.60;;;11.29;29.46;96236.88;5075932;28;20462;-56
2022/03/22 08:22:50;;;;;;;16.30;10.27;;;11.20;34.60;;;11.19;29.56;96241.97;5071515;28;20474;-57
2022/03/22 08:25:19;;;;;;;42.40;11.07;;;11.10;34.90;;;11.08;29.87;96248.00;5073252;28;20512;-56
2022/03/22 08:27:46;;;;;;;30.63;13.63;;;11.00;35.10;;;10.97;29.88;96237.41;5070266;28;20485;-55
2022/03/22 08:30:17;;;;;;;19.87;10.97;;;10.90;35.00;;;10.85;30.15;96243.53;5071166;28;20520;-57
2022/03/22 08:32:46;;;;;;;27.03;10.17;;;10.80;35.30;;;10.72;30.28;96239.13;5075978;28;20471;-58
2022/03/22 08:35:13;;;;;;;20.03;11.97;;;10.70;35.40;;;10.61;30.05;96239.00;5073177;28;20488;-58
2022/03/22 08:37:41;;;;;;;77.47;48.57;;;10.60;35.40;;;10.49;30.41;96242.50;5070718;28;21030;-55
2022/03/22 08:40:11;;;;;;;19.63;12.00;;;10.50;35.80;;;10.41;30.06;96245.66;5073382;28;20462;-57
2022/03/22 08:42:38;;;;;;;23.87;10.67;;;10.40;35.70;;;10.32;30.37;96236.56;5070970;28;20497;-56
2022/03/22 08:45:08;;;;;;;22.33;10.43;;;10.30;35.60;;;10.24;30.52;96241.50;5067534;28;20546;-56
2022/03/22 08:47:35;;;;;;;16.23;10.83;;;10.20;35.90;;;10.16;31.10;96241.16;5079152;28;21197;-57
2022/03/22 08:50:05;;;;;;;18.40;10.10;;;10.20;36.30;;;10.12;31.38;96239.72;5069853;28;20486;-58
2022/03/22 08:52:32;;;;;;;15.67;9.47;;;10.10;36.90;;;10.11;31.32;96238.00;5068884;28;20528;-57
2022/03/22 08:55:00;;;;;;;19.43;10.80;;;10.10;37.00;;;10.11;31.63;96232.75;5074674;28;20486;-57
2022/03/22 08:57:27;;;;;;;13.07;8.97;;;10.10;37.30;;;10.09;31.70;96232.03;5064954;28;20495;-57
2022/03/22 08:59:55;;;;;;;18.40;9.40;;;10.00;37.30;;;10.09;32.00;96234.66;5069810;28;20926;-57
2022/03/22 09:02:22;;;;;;;14.43;9.17;;;10.00;37.50;;;10.11;31.89;96227.50;5073742;28;20469;-56
2022/03/22 09:07:35;;;;;;;17.67;10.80;;;10.00;37.60;;;10.08;31.86;96219.81;5073164;28;20458;-56
2022/03/22 09:10:03;;;;;;;18.30;10.20;;;10.10;37.80;;;10.05;32.06;96213.84;5070578;28;20442;-56
2022/03/22 09:12:30;;;;;;;15.10;10.00;;;10.00;37.80;;;10.02;31.89;96214.03;5066631;28;21002;-59
2022/03/22 09:14:58;;;;;;;24.87;10.80;;;10.00;37.80;;;9.93;32.12;96209.41;5074308;28;20612;-58
2022/03/22 09:17:25;;;;;;;22.37;11.03;;;10.00;38.00;;;9.93;32.33;96214.66;5076315;28;20485;-57
2022/03/22 09:19:53;;;;;;;14.90;10.73;;;9.90;39.60;;;9.91;32.46;96211.25;5065618;28;20930;-57
2022/03/22 09:22:20;;;;;;;17.57;10.73;;;9.90;39.30;;;9.87;32.50;96215.88;5076221;28;20451;-57
2022/03/22 09:24:49;;;;;;;18.57;11.27;;;9.90;39.50;;;9.84;32.83;96216.09;5077236;28;20459;-57
2022/03/22 09:27:16;;;;;;;17.37;11.10;;;9.80;39.60;;;9.81;33.39;96216.28;5069462;28;20474;-57
2022/03/22 09:29:43;;;;;;;16.10;10.47;;;9.80;40.20;;;9.81;33.51;96212.84;5075306;28;20457;-57
2022/03/22 09:32:10;;;;;;;17.00;10.67;;;9.80;40.30;;;9.81;33.32;96200.53;5073382;28;20474;-57
2022/03/22 09:34:39;;;;;;;21.63;11.40;;;9.80;40.40;;;9.86;32.98;96193.19;5067978;28;20494;-57
2022/03/22 09:37:07;;;;;;;62.37;27.07;;;9.80;40.70;;;9.92;33.35;96186.69;5076020;28;20454;-57
2022/03/22 09:39:35;;;;;;;86.50;31.80;;;9.90;40.80;;;10.00;33.85;96176.47;5076036;28;20447;-58
2022/03/22 09:42:04;;;;;;;31.90;13.40;;;9.90;41.00;;;10.26;33.76;96179.13;5070032;28;20886;-57
2022/03/22 09:44:32;;;;;;;33.13;12.33;;;10.20;40.40;;;10.53;33.72;96181.69;5074954;28;20454;-56
2022/03/22 09:47:00;;;;;;;25.87;12.30;;;10.40;40.30;;;10.73;33.58;96193.41;5074095;28;20503;-56
2022/03/22 09:49:28;;;;;;;9.67;6.70;;;10.50;40.50;;;10.83;34.14;96180.47;5065245;28;20461;-55
2022/03/22 09:51:55;;;;;;;22.17;7.37;;;10.70;41.30;;;10.85;35.17;96177.72;5069696;28;20869;-57
2022/03/22 09:54:23;;;;;;;16.53;7.10;;;10.80;42.30;;;10.89;34.95;96181.78;5069485;28;20465;-56
2022/03/22 09:56:51;;;;;;;12.20;6.20;;;10.80;41.90;;;10.97;35.54;96191.78;5066919;28;20459;-56
2022/03/22 09:59:20;;;;;;;8.17;5.70;;;10.90;42.50;;;11.05;36.30;96178.94;5072365;28;20457;-57
2022/03/22 10:01:48;;;;;;;8.53;6.00;;;10.90;43.20;;;11.16;35.48;96159.72;5061407;28;20593;-56
2022/03/22 10:04:16;;;;;;;11.17;7.00;;;11.00;42.80;;;11.36;35.40;96164.38;5064387;28;20463;-56
2022/03/22 10:06:54;;;;;;;10.37;6.00;;;11.30;43.10;;;11.74;35.29;96157.19;5077582;28;20480;-58
2022/03/22 10:09:31;;;;;;;13.53;6.17;;;11.50;43.40;;;12.23;34.96;96157.94;5065301;28;20454;-55
2022/03/22 10:11:58;;;;;;;13.63;6.83;;;11.90;42.50;;;12.60;34.18;96140.09;5060842;28;20467;-57
2022/03/22 10:14:38;;;;;;;12.67;7.30;;;12.30;42.10;;;12.88;33.91;96138.72;5075145;28;20830;-58
2022/03/22 10:17:10;;;;;;;13.43;5.70;;;12.60;41.50;;;13.08;33.67;96139.75;5066529;28;20475;-57
2022/03/22 10:19:45;;;;;;;12.50;7.10;;;12.80;41.20;;;13.08;33.44;96128.38;5073286;28;20450;-59
2022/03/22 10:22:12;;;;;;;13.70;6.83;;;12.90;41.00;;;13.19;33.59;96123.03;5071325;28;20842;-57
2022/03/22 10:24:45;;;;;;;15.30;6.47;;;13.00;41.10;;;13.50;33.45;96112.63;5070515;28;20462;-57
2022/03/22 10:27:27;;;;;;;10.70;6.07;;;13.30;40.90;;;13.94;33.08;96118.66;5071567;28;20462;-56
2022/03/22 10:29:56;;;;;;;12.97;8.00;;;13.60;40.70;;;14.38;32.45;96112.34;5066365;28;20672;-56
2022/03/22 10:32:33;;;;;;;14.33;6.93;;;14.00;39.90;;;14.82;32.05;96111.13;5067639;28;20462;-57
2022/03/22 10:35:14;;;;;;;10.30;7.13;;;14.50;39.80;;;15.34;31.92;96110.94;5071802;28;20494;-56
2022/03/22 10:37:44;;;;;;;16.00;7.50;;;14.90;39.40;;;15.67;31.00;96100.06;5064254;28;20847;-58
2022/03/22 10:40:27;;;;;;;9.40;6.43;;;15.30;38.70;;;15.79;30.23;96103.44;5070774;28;20446;-56
2022/03/22 10:42:56;;;;;;;10.23;6.40;;;15.50;38.00;;;15.94;30.58;96101.97;5072791;28;20479;-57
2022/03/22 10:45:25;;;;;;;12.83;6.30;;;15.60;37.90;;;16.02;30.55;96109.22;5067667;28;20971;-57
2022/03/22 10:47:52;;;;;;;16.70;6.37;;;15.70;37.40;;;16.05;30.40;96103.63;5074638;28;20526;-58
2022/03/22 10:50:19;;;;;;;9.20;7.13;;;15.80;37.30;;;16.11;29.62;96095.97;5074028;28;20982;-56